Time;durP1;ratioP1;P1;durP2;ratioP2;P2;SDS_P1;SDS_P2;PMS_P1;PMS_P2;Temp;Humidity;BMP_temperature;BMP_pressure;BME280_temperature;BME280_humidity;BME280_pressure;Samples;Min_cycle;Max_cycle;Signal;HPM_P1;HPM_P2
2021/07/01 00:00:14;;;;;;;2.13;1.70;;;;;;;;;;4997205;28;20038;-85
2021/07/01 00:02:41;;;;;;;1.65;1.25;;;;;;;;;;4981531;28;20026;-84
2021/07/01 00:05:08;;;;;;;2.25;1.60;;;;;;;;;;4981334;28;20079;-85
2021/07/01 00:07:33;;;;;;;2.53;1.45;;;;;;;;;;4981225;28;20025;-84
2021/07/01 00:10:00;;;;;;;2.17;1.45;;;;;;;;;;4981507;28;20040;-83
2021/07/01 00:12:25;;;;;;;3.33;2.03;;;;;;;;;;4997524;28;20034;-83
2021/07/01 00:14:52;;;;;;;2.60;1.25;;;;;;;;;;4997181;28;20040;-83
2021/07/01 00:17:17;;;;;;;2.08;1.10;;;;;;;;;;4997572;28;20036;-84
2021/07/01 00:19:43;;;;;;;2.03;1.20;;;;;;;;;;4997615;28;20045;-84
2021/07/01 00:22:09;;;;;;;2.30;1.02;;;;;;;;;;4997532;28;20025;-83
2021/07/01 00:24:34;;;;;;;1.73;1.35;;;;;;;;;;4981135;28;20438;-83
2021/07/01 00:27:00;;;;;;;1.80;1.25;;;;;;;;;;4997736;28;20040;-84
2021/07/01 00:29:25;;;;;;;3.47;1.40;;;;;;;;;;4981145;28;20038;-85
2021/07/01 00:31:50;;;;;;;2.60;1.48;;;;;;;;;;4997111;28;20475;-85
2021/07/01 00:34:16;;;;;;;1.88;1.05;;;;;;;;;;5013666;28;20033;-84
2021/07/01 00:36:43;;;;;;;2.00;1.08;;;;;;;;;;5013690;28;20029;-85
2021/07/01 00:39:09;;;;;;;2.75;1.42;;;;;;;;;;5014075;28;20112;-86
2021/07/01 00:41:34;;;;;;;2.22;1.10;;;;;;;;;;4997232;28;20026;-84
2021/07/01 00:44:01;;;;;;;2.55;1.35;;;;;;;;;;5013552;28;20044;-84
2021/07/01 00:46:30;;;;;;;2.15;1.20;;;;;;;;;;4994685;28;20021;-83
2021/07/01 00:48:56;;;;;;;2.17;1.20;;;;;;;;;;4996785;28;20463;-83
2021/07/01 00:51:22;;;;;;;2.00;1.10;;;;;;;;;;4997038;28;20033;-84
2021/07/01 00:53:47;;;;;;;3.15;1.38;;;;;;;;;;4998021;28;20034;-84
2021/07/01 00:56:15;;;;;;;2.78;1.30;;;;;;;;;;4984814;28;20026;-84
2021/07/01 00:58:40;;;;;;;1.70;1.00;;;;;;;;;;5000463;28;20398;-83
2021/07/01 01:01:06;;;;;;;2.45;1.33;;;;;;;;;;4983996;28;20165;-84
2021/07/01 01:03:34;;;;;;;1.95;1.20;;;;;;;;;;5000298;28;20029;-84
2021/07/01 01:05:59;;;;;;;2.25;1.20;;;;;;;;;;4984148;28;20086;-83
2021/07/01 01:08:25;;;;;;;2.83;1.58;;;;;;;;;;5000135;28;20435;-82
2021/07/01 01:10:51;;;;;;;1.65;0.90;;;;;;;;;;4984292;28;20116;-82
2021/07/01 01:13:23;;;;;;;2.65;1.10;;;;;;;;;;4983889;28;20120;-82
2021/07/01 01:15:50;;;;;;;;;;;;;;;;;;5002002;28;20044;-82
2021/07/01 01:18:15;;;;;;;2.38;1.30;;;;;;;;;;5016584;28;19905;-82
2021/07/01 01:20:41;;;;;;;1.95;1.30;;;;;;;;;;4999869;28;20032;-82
2021/07/01 01:23:06;;;;;;;2.95;1.38;;;;;;;;;;5016671;28;20037;-82
2021/07/01 01:25:32;;;;;;;2.08;1.17;;;;;;;;;;5032561;28;20399;-83
2021/07/01 01:27:57;;;;;;;2.90;1.88;;;;;;;;;;5016077;28;20476;-82
2021/07/01 01:30:23;;;;;;;1.80;1.10;;;;;;;;;;5016069;28;20032;-82
2021/07/01 01:32:48;;;;;;;2.95;1.10;;;;;;;;;;5012603;28;20037;-82
2021/07/01 01:35:16;;;;;;;2.10;1.40;;;;;;;;;;5012833;28;20540;-82
2021/07/01 01:37:41;;;;;;;2.72;1.58;;;;;;;;;;4996280;28;20113;-82
2021/07/01 01:40:07;;;;;;;2.53;1.38;;;;;;;;;;4996673;28;20037;-82
2021/07/01 01:42:32;;;;;;;2.30;1.30;;;;;;;;;;5012420;28;20100;-81
2021/07/01 01:44:58;;;;;;;1.67;1.20;;;;;;;;;;4996264;28;20064;-81
2021/07/01 01:47:23;;;;;;;2.08;1.30;;;;;;;;;;4996129;28;20038;-81
2021/07/01 01:49:49;;;;;;;4.05;1.92;;;;;;;;;;5003763;28;20037;-81
2021/07/01 01:52:15;;;;;;;2.40;1.20;;;;;;;;;;4996153;28;20030;-81
2021/07/01 01:54:41;;;;;;;2.10;1.13;;;;;;;;;;4996137;28;20121;-81
2021/07/01 01:57:06;;;;;;;2.08;1.52;;;;;;;;;;4996211;28;20093;-81
2021/07/01 01:59:32;;;;;;;2.78;1.42;;;;;;;;;;4996131;28;20034;-80
2021/07/01 02:01:57;;;;;;;2.65;1.50;;;;;;;;;;4979676;28;20032;-80
2021/07/01 02:04:23;;;;;;;2.20;1.50;;;;;;;;;;5000248;28;20048;-80
2021/07/01 02:06:48;;;;;;;2.28;1.33;;;;;;;;;;4996171;28;20084;-80
2021/07/01 02:09:14;;;;;;;2.58;1.52;;;;;;;;;;4995776;28;20026;-80
2021/07/01 02:11:39;;;;;;;3.25;1.80;;;;;;;;;;4995632;28;20034;-80
2021/07/01 02:14:05;;;;;;;3.25;1.77;;;;;;;;;;5011891;28;20029;-80
2021/07/01 02:16:30;;;;;;;3.33;1.88;;;;;;;;;;4995618;28;20104;-81
2021/07/01 02:18:56;;;;;;;9.18;1.80;;;;;;;;;;5011955;28;20026;-80
2021/07/01 02:21:21;;;;;;;3.38;2.20;;;;;;;;;;5022566;28;20033;-79
2021/07/01 02:23:48;;;;;;;3.53;2.40;;;;;;;;;;5015064;28;20044;-80
2021/07/01 02:26:14;;;;;;;3.40;2.30;;;;;;;;;;5014987;28;20037;-79
2021/07/01 02:28:40;;;;;;;3.45;2.30;;;;;;;;;;5031621;28;20061;-80
2021/07/01 02:31:05;;;;;;;5.00;2.72;;;;;;;;;;5014975;28;20029;-80
2021/07/01 02:33:31;;;;;;;6.72;2.70;;;;;;;;;;5027792;28;20030;-79
2021/07/01 02:35:56;;;;;;;5.82;3.35;;;;;;;;;;5011698;28;20536;-80
2021/07/01 02:38:22;;;;;;;3.85;2.85;;;;;;;;;;4995342;28;20384;-80
2021/07/01 02:40:47;;;;;;;4.90;3.25;;;;;;;;;;4994997;28;20029;-79
2021/07/01 02:43:13;;;;;;;3.75;2.72;;;;;;;;;;5011407;28;20088;-80
2021/07/01 02:45:39;;;;;;;4.15;3.00;;;;;;;;;;4994873;28;20033;-80
2021/07/01 02:48:05;;;;;;;5.50;4.03;;;;;;;;;;5011266;28;20041;-79
2021/07/01 02:50:31;;;;;;;5.40;3.72;;;;;;;;;;5011360;28;20040;-80
2021/07/01 02:52:56;;;;;;;4.90;3.42;;;;;;;;;;5014182;28;20407;-79
2021/07/01 02:55:22;;;;;;;5.13;3.60;;;;;;;;;;5031184;28;20037;-79
2021/07/01 02:57:48;;;;;;;5.82;3.83;;;;;;;;;;5014892;28;20063;-79
2021/07/01 03:00:14;;;;;;;5.45;3.83;;;;;;;;;;5014532;28;20026;-79
2021/07/01 03:02:39;;;;;;;5.45;3.95;;;;;;;;;;5014964;28;20083;-79
2021/07/01 03:05:05;;;;;;;5.78;3.83;;;;;;;;;;5030485;28;20029;-79
2021/07/01 03:07:31;;;;;;;6.78;4.15;;;;;;;;;;4997907;28;20124;-79
2021/07/01 03:09:56;;;;;;;5.28;3.72;;;;;;;;;;4997498;28;20029;-80
2021/07/01 03:12:23;;;;;;;6.20;3.90;;;;;;;;;;4978610;28;20033;-79
2021/07/01 03:14:48;;;;;;;5.03;3.75;;;;;;;;;;4997977;28;20526;-79
2021/07/01 03:17:14;;;;;;;5.88;3.72;;;;;;;;;;4997030;28;20033;-80
2021/07/01 03:19:39;;;;;;;4.95;4.05;;;;;;;;;;4997980;28;20074;-80
2021/07/01 03:22:05;;;;;;;7.95;4.47;;;;;;;;;;4997719;28;20033;-81
2021/07/01 03:24:30;;;;;;;5.70;4.00;;;;;;;;;;4997415;28;20037;-82
2021/07/01 03:26:59;;;;;;;5.45;3.95;;;;;;;;;;4997768;28;20391;-81
2021/07/01 03:29:25;;;;;;;6.15;4.45;;;;;;;;;;5014547;28;20029;-81
2021/07/01 03:31:50;;;;;;;6.43;4.43;;;;;;;;;;4981539;28;20513;-80
2021/07/01 03:34:18;;;;;;;5.40;4.00;;;;;;;;;;5024210;28;20030;-81
2021/07/01 03:36:43;;;;;;;7.00;4.10;;;;;;;;;;5011229;28;20034;-81
2021/07/01 03:39:08;;;;;;;5.35;3.88;;;;;;;;;;4994278;28;20049;-81
2021/07/01 03:41:34;;;;;;;6.18;4.05;;;;;;;;;;4994692;28;20038;-82
2021/07/01 03:43:59;;;;;;;5.32;3.85;;;;;;;;;;4980141;28;20052;-79
2021/07/01 03:46:25;;;;;;;5.78;4.15;;;;;;;;;;5009863;28;20053;-79
2021/07/01 03:48:51;;;;;;;6.55;4.35;;;;;;;;;;4995670;28;20025;-79
2021/07/01 03:51:16;;;;;;;6.72;4.60;;;;;;;;;;5014443;28;20411;-79
2021/07/01 03:53:42;;;;;;;6.03;4.47;;;;;;;;;;5013426;28;20042;-79
2021/07/01 03:56:07;;;;;;;6.13;4.55;;;;;;;;;;4997749;28;20048;-79
2021/07/01 03:58:33;;;;;;;7.18;4.25;;;;;;;;;;5013517;28;20034;-79
2021/07/01 04:00:58;;;;;;;6.53;3.60;;;;;;;;;;4996387;28;20125;-79
2021/07/01 04:03:24;;;;;;;9.10;4.35;;;;;;;;;;5030109;28;20390;-79
2021/07/01 04:05:49;;;;;;;6.22;4.20;;;;;;;;;;4997455;28;20394;-79
2021/07/01 04:08:15;;;;;;;5.70;4.10;;;;;;;;;;4997095;28;20028;-79
2021/07/01 04:10:40;;;;;;;7.03;4.35;;;;;;;;;;4997376;28;20107;-80
2021/07/01 04:13:06;;;;;;;5.97;4.55;;;;;;;;;;4997447;28;20052;-79
2021/07/01 04:15:31;;;;;;;8.77;4.55;;;;;;;;;;5012800;28;20109;-79
2021/07/01 04:17:57;;;;;;;6.15;4.10;;;;;;;;;;4997271;28;20542;-80
2021/07/01 04:20:22;;;;;;;5.95;3.90;;;;;;;;;;5028701;28;20037;-79
2021/07/01 04:22:48;;;;;;;7.53;4.20;;;;;;;;;;5013353;28;20033;-79
2021/07/01 04:25:13;;;;;;;6.13;3.67;;;;;;;;;;4997027;28;20033;-79
2021/07/01 04:27:39;;;;;;;6.13;4.32;;;;;;;;;;5030255;28;20037;-80
2021/07/01 04:30:05;;;;;;;7.20;4.72;;;;;;;;;;5000864;28;20074;-79
2021/07/01 04:32:34;;;;;;;7.57;4.20;;;;;;;;;;5014339;28;20025;-79
2021/07/01 04:35:00;;;;;;;6.80;4.50;;;;;;;;;;4997338;28;20025;-79
2021/07/01 04:37:25;;;;;;;7.18;4.22;;;;;;;;;;5014110;28;20029;-81
2021/07/01 04:39:51;;;;;;;6.43;4.65;;;;;;;;;;5013822;28;20044;-81
2021/07/01 04:42:16;;;;;;;5.85;4.18;;;;;;;;;;5000260;28;20053;-81
2021/07/01 04:44:42;;;;;;;5.75;4.28;;;;;;;;;;4984537;28;20040;-81
2021/07/01 04:47:07;;;;;;;7.00;4.28;;;;;;;;;;4984508;28;20026;-81
2021/07/01 04:49:33;;;;;;;7.68;4.40;;;;;;;;;;5017132;28;20030;-81
2021/07/01 04:51:58;;;;;;;6.53;4.25;;;;;;;;;;5000563;28;20082;-81
2021/07/01 04:54:24;;;;;;;6.00;4.22;;;;;;;;;;5016617;28;20491;-81
2021/07/01 04:56:49;;;;;;;8.18;4.25;;;;;;;;;;5000820;28;20099;-81
2021/07/01 04:59:16;;;;;;;5.93;3.72;;;;;;;;;;5000295;28;20029;-81
2021/07/01 05:01:42;;;;;;;6.45;4.57;;;;;;;;;;5016996;28;20029;-81
2021/07/01 05:04:09;;;;;;;4.53;3.78;;;;;;;;;;4999943;28;20025;-81
2021/07/01 05:06:35;;;;;;;5.82;3.92;;;;;;;;;;5000518;28;20514;-81
2021/07/01 05:09:01;;;;;;;6.75;4.20;;;;;;;;;;5000444;28;20128;-81
2021/07/01 05:11:26;;;;;;;8.05;4.55;;;;;;;;;;5000571;28;20461;-81
2021/07/01 05:13:52;;;;;;;7.07;4.15;;;;;;;;;;4999965;28;20037;-81
2021/07/01 05:16:17;;;;;;;6.78;4.00;;;;;;;;;;5000192;28;20048;-81
2021/07/01 05:18:43;;;;;;;8.02;4.40;;;;;;;;;;5016225;28;20022;-81
2021/07/01 05:21:08;;;;;;;7.22;4.53;;;;;;;;;;4983946;28;20030;-82
2021/07/01 05:23:34;;;;;;;8.75;4.70;;;;;;;;;;5000253;28;20052;-82
2021/07/01 05:25:59;;;;;;;6.90;3.75;;;;;;;;;;4999955;28;20049;-83
2021/07/01 05:28:25;;;;;;;6.78;3.92;;;;;;;;;;4996466;28;20026;-83
2021/07/01 05:30:50;;;;;;;6.85;3.75;;;;;;;;;;4996670;28;20029;-85
2021/07/01 05:33:17;;;;;;;5.40;3.50;;;;;;;;;;5010959;28;20033;-84
2021/07/01 05:35:43;;;;;;;7.13;3.70;;;;;;;;;;4996878;28;20037;-84
2021/07/01 05:38:08;;;;;;;6.07;3.72;;;;;;;;;;4996355;28;20038;-85
2021/07/01 05:40:33;;;;;;;7.65;4.57;;;;;;;;;;4995837;28;20030;-84
2021/07/01 05:43:00;;;;;;;7.63;4.25;;;;;;;;;;5012363;28;20042;-83
2021/07/01 05:45:25;;;;;;;7.43;3.85;;;;;;;;;;4996229;28;20029;-83
2021/07/01 05:47:51;;;;;;;5.55;3.85;;;;;;;;;;5011299;28;20104;-83
2021/07/01 05:50:16;;;;;;;6.05;3.85;;;;;;;;;;4995927;28;20083;-83
2021/07/01 05:52:44;;;;;;;9.35;3.78;;;;;;;;;;5008896;28;20037;-82
2021/07/01 05:55:10;;;;;;;7.32;3.67;;;;;;;;;;4999597;28;20068;-83
2021/07/01 05:57:35;;;;;;;10.63;4.10;;;;;;;;;;4999287;28;20395;-82
2021/07/01 06:00:01;;;;;;;8.82;4.05;;;;;;;;;;5015654;28;20036;-82
2021/07/01 06:02:27;;;;;;;9.85;4.38;;;;;;;;;;4998572;28;20025;-83
2021/07/01 06:04:53;;;;;;;9.70;4.20;;;;;;;;;;4998991;28;20475;-83
2021/07/01 06:07:24;;;;;;;7.15;4.40;;;;;;;;;;5015780;28;20037;-83
2021/07/01 06:09:54;;;;;;;5.32;3.90;;;;;;;;;;4998456;28;20033;-80
2021/07/01 06:12:23;;;;;;;8.98;4.30;;;;;;;;;;5007876;28;20029;-80
2021/07/01 06:14:55;;;;;;;9.48;4.43;;;;;;;;;;5012771;28;20029;-81
2021/07/01 06:17:20;;;;;;;6.97;4.00;;;;;;;;;;5016367;28;20589;-81
2021/07/01 06:19:49;;;;;;;12.07;4.72;;;;;;;;;;5013292;28;20073;-82
2021/07/01 06:22:16;;;;;;;7.50;4.20;;;;;;;;;;5014785;28;20439;-81
2021/07/01 06:24:42;;;;;;;7.38;3.97;;;;;;;;;;5031517;28;20048;-82
2021/07/01 06:27:07;;;;;;;7.72;3.63;;;;;;;;;;5015446;28;20116;-81
2021/07/01 06:29:33;;;;;;;5.50;3.10;;;;;;;;;;5031243;28;20068;-81
2021/07/01 06:31:58;;;;;;;5.63;3.53;;;;;;;;;;4994858;28;20029;-81
2021/07/01 06:34:24;;;;;;;7.97;3.65;;;;;;;;;;4995152;28;20056;-81
2021/07/01 06:36:49;;;;;;;9.02;3.40;;;;;;;;;;4995341;28;20396;-82
2021/07/01 06:39:15;;;;;;;6.65;3.30;;;;;;;;;;5012379;28;20032;-81
2021/07/01 06:41:43;;;;;;;6.75;3.70;;;;;;;;;;4995251;28;20030;-81
2021/07/01 06:44:08;;;;;;;9.35;3.35;;;;;;;;;;5011413;28;20456;-82
2021/07/01 06:46:34;;;;;;;10.23;3.80;;;;;;;;;;4994936;28;20037;-82
2021/07/01 06:49:01;;;;;;;7.40;3.80;;;;;;;;;;4999153;28;20026;-84
2021/07/01 06:51:26;;;;;;;9.10;3.95;;;;;;;;;;4998946;28;20095;-83
2021/07/01 06:53:53;;;;;;;10.75;3.83;;;;;;;;;;4997531;28;20488;-82
2021/07/01 06:56:21;;;;;;;9.82;4.00;;;;;;;;;;4997984;28;20087;-82
2021/07/01 06:58:48;;;;;;;12.48;4.22;;;;;;;;;;4984322;28;20034;-84
2021/07/01 07:01:14;;;;;;;7.28;4.75;;;;;;;;;;4994344;28;20068;-83
2021/07/01 07:03:39;;;;;;;8.00;4.05;;;;;;;;;;4995110;28;20033;-82
2021/07/01 07:06:05;;;;;;;6.57;4.05;;;;;;;;;;4994999;28;20046;-83
2021/07/01 07:08:31;;;;;;;8.88;4.30;;;;;;;;;;4994445;28;20037;-83
2021/07/01 07:10:57;;;;;;;9.50;4.22;;;;;;;;;;4995445;28;20038;-83
2021/07/01 07:13:26;;;;;;;7.38;4.13;;;;;;;;;;5011079;28;20025;-82
2021/07/01 07:15:53;;;;;;;7.30;3.92;;;;;;;;;;4995152;28;20021;-83
2021/07/01 07:18:23;;;;;;;9.98;4.93;;;;;;;;;;5010343;28;20022;-82
2021/07/01 07:21:08;;;;;;;8.50;4.07;;;;;;;;;;5000521;28;20036;-83
2021/07/01 07:23:35;;;;;;;9.93;4.18;;;;;;;;;;5026715;28;20041;-82
2021/07/01 07:26:21;;;;;;;8.55;4.13;;;;;;;;;;5010601;28;20034;-82
2021/07/01 07:28:51;;;;;;;6.82;4.20;;;;;;;;;;4994196;28;20034;-83
2021/07/01 07:31:28;;;;;;;8.77;4.30;;;;;;;;;;4977760;28;20048;-83
2021/07/01 07:33:55;;;;;;;17.63;5.05;;;;;;;;;;5014655;28;20049;-84
2021/07/01 07:36:22;;;;;;;17.13;4.32;;;;;;;;;;5014248;28;20036;-83
2021/07/01 07:38:49;;;;;;;7.85;3.85;;;;;;;;;;5013620;28;20034;-83
2021/07/01 07:41:15;;;;;;;9.50;4.30;;;;;;;;;;5014297;28;20120;-83
2021/07/01 07:43:41;;;;;;;11.15;3.92;;;;;;;;;;4997556;28;20071;-81
2021/07/01 07:46:06;;;;;;;10.07;4.40;;;;;;;;;;4996743;28;20029;-80
2021/07/01 07:48:32;;;;;;;8.30;3.65;;;;;;;;;;4997699;28;20112;-80
2021/07/01 07:50:57;;;;;;;10.40;3.75;;;;;;;;;;5013149;28;20041;-80
2021/07/01 07:53:24;;;;;;;9.50;3.92;;;;;;;;;;4981039;28;20534;-81
2021/07/01 07:56:01;;;;;;;10.27;4.18;;;;;;;;;;4980786;28;20099;-80
2021/07/01 07:58:28;;;;;;;11.82;5.30;;;;;;;;;;4998246;28;20084;-81
2021/07/01 08:00:54;;;;;;;7.05;3.58;;;;;;;;;;5014177;28;20467;-81
2021/07/01 08:03:19;;;;;;;8.15;3.50;;;;;;;;;;4999268;28;20047;-83
2021/07/01 08:05:45;;;;;;;5.95;3.50;;;;;;;;;;5001275;28;20037;-81
2021/07/01 08:08:12;;;;;;;7.85;3.72;;;;;;;;;;5000775;28;20033;-80
2021/07/01 08:10:39;;;;;;;9.98;3.97;;;;;;;;;;5013193;28;20395;-81
2021/07/01 08:13:05;;;;;;;9.23;3.53;;;;;;;;;;5016995;28;20025;-81
2021/07/01 08:15:31;;;;;;;8.07;3.38;;;;;;;;;;5034230;28;20029;-81
2021/07/01 08:17:57;;;;;;;9.90;4.05;;;;;;;;;;5017573;28;20059;-80
2021/07/01 08:20:23;;;;;;;8.38;4.30;;;;;;;;;;5033860;28;20037;-80
2021/07/01 08:22:50;;;;;;;12.23;4.90;;;;;;;;;;5001554;28;20075;-80
2021/07/01 08:25:16;;;;;;;8.02;4.03;;;;;;;;;;5001010;28;20075;-81
2021/07/01 08:27:43;;;;;;;11.40;4.78;;;;;;;;;;5000194;28;20037;-81
2021/07/01 08:30:09;;;;;;;9.20;5.22;;;;;;;;;;5000528;28;20029;-81
2021/07/01 08:32:35;;;;;;;15.27;5.60;;;;;;;;;;4996715;28;20049;-81
2021/07/01 08:35:01;;;;;;;9.40;4.07;;;;;;;;;;5013603;28;20488;-81
2021/07/01 08:37:27;;;;;;;13.40;5.30;;;;;;;;;;5014076;28;20032;-81
2021/07/01 08:39:53;;;;;;;11.38;4.38;;;;;;;;;;4997825;28;20030;-81
2021/07/01 08:42:18;;;;;;;9.65;4.97;;;;;;;;;;4998563;28;20052;-80
2021/07/01 08:44:44;;;;;;;10.10;5.10;;;;;;;;;;5000736;28;20038;-81
2021/07/01 08:47:18;;;;;;;10.13;4.93;;;;;;;;;;5017082;28;20021;-80
2021/07/01 08:50:17;;;;;;;9.18;5.15;;;;;;;;;;4997704;28;20026;-80
2021/07/01 08:52:58;;;;;;;12.38;5.45;;;;;;;;;;5016286;28;20057;-81
2021/07/01 08:55:24;;;;;;;10.45;4.95;;;;;;;;;;5013324;28;20080;-80
2021/07/01 08:57:50;;;;;;;13.43;4.57;;;;;;;;;;4997145;28;20092;-80
2021/07/01 09:00:16;;;;;;;10.85;5.38;;;;;;;;;;4997314;28;20434;-80
2021/07/01 09:03:03;;;;;;;9.77;4.80;;;;;;;;;;5011992;28;20029;-81
2021/07/01 09:05:29;;;;;;;13.18;5.22;;;;;;;;;;5013191;28;20043;-81
2021/07/01 09:07:55;;;;;;;10.85;5.22;;;;;;;;;;5000394;28;20040;-80
2021/07/01 09:10:21;;;;;;;9.93;4.07;;;;;;;;;;5016818;28;20124;-81
2021/07/01 09:12:54;;;;;;;26.73;5.90;;;;;;;;;;4999972;28;20064;-81
2021/07/01 09:15:20;;;;;;;11.32;4.82;;;;;;;;;;4999076;28;20025;-80
2021/07/01 09:17:48;;;;;;;9.25;5.30;;;;;;;;;;5000458;28;20384;-81
2021/07/01 09:20:19;;;;;;;10.77;5.22;;;;;;;;;;5016930;28;20041;-81
2021/07/01 09:22:48;;;;;;;8.02;4.57;;;;;;;;;;5000372;28;20124;-80
2021/07/01 09:25:15;;;;;;;24.80;5.55;;;;;;;;;;4999585;28;20056;-80
2021/07/01 09:27:42;;;;;;;8.90;4.32;;;;;;;;;;4999397;28;20030;-80
2021/07/01 09:30:08;;;;;;;9.38;4.15;;;;;;;;;;5016568;28;20112;-80
2021/07/01 09:32:34;;;;;;;15.80;4.22;;;;;;;;;;5016258;28;20538;-80
2021/07/01 09:34:59;;;;;;;11.90;4.03;;;;;;;;;;5000217;28;20112;-80
2021/07/01 09:37:25;;;;;;;7.03;4.15;;;;;;;;;;4999713;28;20403;-80
2021/07/01 09:39:51;;;;;;;11.77;4.63;;;;;;;;;;4999376;28;20037;-80
2021/07/01 09:42:16;;;;;;;9.60;4.68;;;;;;;;;;4999839;28;20060;-80
2021/07/01 09:44:42;;;;;;;12.38;5.07;;;;;;;;;;5015480;28;20033;-80
2021/07/01 09:47:10;;;;;;;21.98;6.13;;;;;;;;;;4999378;28;20029;-85
2021/07/01 09:49:40;;;;;;;11.65;5.78;;;;;;;;;;4983331;28;20026;-80
2021/07/01 09:52:10;;;;;;;19.05;5.60;;;;;;;;;;5028691;28;20074;-81
2021/07/01 09:54:37;;;;;;;11.85;4.63;;;;;;;;;;5015401;28;20508;-86
2021/07/01 09:57:13;;;;;;;11.93;4.80;;;;;;;;;;5012156;28;20116;-86
2021/07/01 09:59:46;;;;;;;16.70;4.40;;;;;;;;;;5010298;28;20033;-86
2021/07/01 10:02:13;;;;;;;8.23;4.63;;;;;;;;;;5000892;28;20033;-79
2021/07/01 10:04:40;;;;;;;10.35;4.32;;;;;;;;;;4998540;28;20132;-79
2021/07/01 10:07:09;;;;;;;10.68;4.68;;;;;;;;;;5012473;28;20040;-79
2021/07/01 10:09:35;;;;;;;9.45;4.00;;;;;;;;;;5013159;28;20042;-79
2021/07/01 10:12:00;;;;;;;7.55;3.95;;;;;;;;;;5009582;28;20045;-79
2021/07/01 10:14:26;;;;;;;11.27;4.35;;;;;;;;;;4996033;28;20034;-79
2021/07/01 10:16:52;;;;;;;8.95;3.45;;;;;;;;;;4991440;28;20499;-78
2021/07/01 10:19:19;;;;;;;5.82;3.97;;;;;;;;;;4979461;28;20034;-79
2021/07/01 10:21:44;;;;;;;7.43;3.42;;;;;;;;;;5015626;28;20036;-80
2021/07/01 10:24:11;;;;;;;8.32;4.05;;;;;;;;;;5014834;28;20120;-79
2021/07/01 10:26:41;;;;;;;6.28;3.63;;;;;;;;;;5031304;28;20026;-79
2021/07/01 10:29:06;;;;;;;7.07;3.60;;;;;;;;;;5015217;28;20386;-79
2021/07/01 10:31:51;;;;;;;5.93;2.85;;;;;;;;;;5014933;28;20128;-79
2021/07/01 10:34:17;;;;;;;7.22;3.00;;;;;;;;;;5014614;28;20029;-79
2021/07/01 10:36:43;;;;;;;6.68;2.50;;;;;;;;;;5015293;28;20080;-79
2021/07/01 10:39:08;;;;;;;5.18;2.47;;;;;;;;;;5014775;28;20076;-79
2021/07/01 10:41:35;;;;;;;4.80;2.58;;;;;;;;;;5015085;28;20061;-79
2021/07/01 10:44:04;;;;;;;4.55;2.30;;;;;;;;;;5015382;28;20067;-79
2021/07/01 10:46:44;;;;;;;5.13;2.40;;;;;;;;;;5014855;28;20262;-79
2021/07/01 10:49:12;;;;;;;6.07;2.45;;;;;;;;;;5015120;28;20033;-79
2021/07/01 10:51:54;;;;;;;4.13;2.00;;;;;;;;;;5015067;28;20037;-80
2021/07/01 10:54:20;;;;;;;6.55;2.45;;;;;;;;;;4997683;28;20089;-79
2021/07/01 10:56:45;;;;;;;3.97;2.40;;;;;;;;;;5012477;28;20045;-79
2021/07/01 10:59:11;;;;;;;4.32;2.63;;;;;;;;;;5028390;28;20049;-79
2021/07/01 11:01:37;;;;;;;5.45;2.67;;;;;;;;;;5012862;28;20099;-79
2021/07/01 11:04:08;;;;;;;5.25;2.55;;;;;;;;;;4997883;28;20032;-79
2021/07/01 11:06:34;;;;;;;4.57;2.95;;;;;;;;;;5031161;28;20033;-79
2021/07/01 11:09:00;;;;;;;7.57;2.92;;;;;;;;;;4994620;28;20395;-79
2021/07/01 11:11:31;;;;;;;6.80;2.55;;;;;;;;;;5011071;28;20476;-79
2021/07/01 11:14:00;;;;;;;6.32;2.53;;;;;;;;;;5012074;28;20030;-79
2021/07/01 11:16:38;;;;;;;5.13;2.50;;;;;;;;;;4995385;28;20029;-79
2021/07/01 11:19:04;;;;;;;5.30;2.53;;;;;;;;;;5011214;28;20472;-79
2021/07/01 11:21:30;;;;;;;6.03;2.60;;;;;;;;;;4996287;28;20048;-79
2021/07/01 11:24:09;;;;;;;4.10;2.40;;;;;;;;;;4997866;28;20037;-79
2021/07/01 11:26:35;;;;;;;5.00;2.58;;;;;;;;;;5014153;28;20029;-79
2021/07/01 11:29:06;;;;;;;5.90;3.25;;;;;;;;;;5014050;28;20032;-79
2021/07/01 11:31:45;;;;;;;4.20;2.33;;;;;;;;;;4998696;28;20091;-79
2021/07/01 11:34:18;;;;;;;5.20;2.25;;;;;;;;;;4998070;28;20033;-79
2021/07/01 11:36:51;;;;;;;6.05;2.53;;;;;;;;;;4998305;28;20029;-79
2021/07/01 11:39:27;;;;;;;5.35;2.67;;;;;;;;;;4997705;28;20030;-79
2021/07/01 11:41:53;;;;;;;3.30;2.08;;;;;;;;;;5014932;28;20058;-79
2021/07/01 11:44:19;;;;;;;3.85;2.47;;;;;;;;;;4996366;28;20499;-79
2021/07/01 11:46:44;;;;;;;5.20;2.30;;;;;;;;;;4997650;28;20036;-79
2021/07/01 11:49:10;;;;;;;6.25;2.92;;;;;;;;;;5025171;28;20049;-79
2021/07/01 11:51:37;;;;;;;4.65;2.30;;;;;;;;;;5012030;28;20486;-79
2021/07/01 11:54:03;;;;;;;6.22;2.58;;;;;;;;;;5013095;28;20454;-79
2021/07/01 11:56:29;;;;;;;6.05;2.67;;;;;;;;;;4982226;28;20129;-79
2021/07/01 11:58:54;;;;;;;5.30;2.13;;;;;;;;;;5018057;28;20536;-79
2021/07/01 12:01:20;;;;;;;5.40;2.50;;;;;;;;;;5028641;28;20510;-79
2021/07/01 12:03:49;;;;;;;4.75;2.13;;;;;;;;;;5013900;28;20022;-79
2021/07/01 12:06:28;;;;;;;5.80;2.38;;;;;;;;;;4997230;28;20022;-80
2021/07/01 12:08:53;;;;;;;5.20;2.33;;;;;;;;;;5013999;28;20533;-79
2021/07/01 12:11:19;;;;;;;4.75;2.20;;;;;;;;;;4997505;28;20033;-79
2021/07/01 12:13:45;;;;;;;5.07;2.33;;;;;;;;;;5013835;28;20037;-79
2021/07/01 12:16:15;;;;;;;4.40;1.90;;;;;;;;;;5013783;28;20045;-79
2021/07/01 12:18:50;;;;;;;4.55;2.28;;;;;;;;;;5013334;28;20095;-79
2021/07/01 12:21:30;;;;;;;4.13;2.17;;;;;;;;;;5013378;28;20053;-79
2021/07/01 12:24:04;;;;;;;3.92;2.28;;;;;;;;;;5012527;28;20466;-79
2021/07/01 12:26:40;;;;;;;3.67;1.85;;;;;;;;;;4996923;28;20045;-79
2021/07/01 12:29:12;;;;;;;3.97;1.70;;;;;;;;;;4998433;28;20148;-79
2021/07/01 12:31:40;;;;;;;7.38;4.25;;;;;;;;;;4994183;28;20427;-79
2021/07/01 12:34:07;;;;;;;13.88;9.25;;;;;;;;;;5025666;28;20030;-79
2021/07/01 12:36:36;;;;;;;37.22;26.85;;;;;;;;;;5029560;28;20045;-79
2021/07/01 12:39:08;;;;;;;65.85;48.10;;;;;;;;;;4997183;28;20044;-80
2021/07/01 12:41:38;;;;;;;61.20;45.60;;;;;;;;;;5029919;28;20026;-79
2021/07/01 12:44:13;;;;;;;55.15;38.85;;;;;;;;;;5010171;28;20103;-79
2021/07/01 12:46:47;;;;;;;52.25;36.35;;;;;;;;;;4997617;28;20534;-80
2021/07/01 12:49:16;;;;;;;51.28;37.15;;;;;;;;;;5014027;28;20087;-78
2021/07/01 12:51:45;;;;;;;50.80;34.40;;;;;;;;;;5033714;28;20065;-79
2021/07/01 12:54:14;;;;;;;47.95;33.50;;;;;;;;;;5016032;28;20167;-79
2021/07/01 12:56:40;;;;;;;45.33;31.65;;;;;;;;;;5016196;28;20041;-79
2021/07/01 12:59:05;;;;;;;44.28;31.23;;;;;;;;;;5005023;28;20080;-79
2021/07/01 13:01:31;;;;;;;40.15;28.58;;;;;;;;;;4996276;28;20062;-80
2021/07/01 13:03:57;;;;;;;36.55;25.38;;;;;;;;;;5014493;28;20034;-79
2021/07/01 13:06:23;;;;;;;34.95;23.38;;;;;;;;;;5015211;28;20025;-79
2021/07/01 13:08:49;;;;;;;29.48;21.75;;;;;;;;;;5014151;28;20025;-79
2021/07/01 13:11:14;;;;;;;31.42;23.10;;;;;;;;;;5000361;28;20044;-79
2021/07/01 13:13:40;;;;;;;28.92;20.23;;;;;;;;;;5000310;28;20069;-79
2021/07/01 13:16:06;;;;;;;28.23;20.83;;;;;;;;;;5016636;28;20040;-79
2021/07/01 13:18:32;;;;;;;26.30;18.55;;;;;;;;;;5016745;28;20037;-79
2021/07/01 13:21:10;;;;;;;28.00;19.08;;;;;;;;;;5016634;28;20090;-79
2021/07/01 13:23:36;;;;;;;23.88;15.50;;;;;;;;;;4999872;28;20037;-79
2021/07/01 13:26:13;;;;;;;20.40;14.00;;;;;;;;;;4999304;28;20461;-79
2021/07/01 13:28:39;;;;;;;20.27;14.02;;;;;;;;;;5032815;28;20104;-79
2021/07/01 13:31:05;;;;;;;16.17;10.48;;;;;;;;;;5015204;28;20563;-79
2021/07/01 13:33:30;;;;;;;14.13;9.93;;;;;;;;;;5000095;28;20542;-79
2021/07/01 13:35:56;;;;;;;12.27;9.15;;;;;;;;;;5015857;28;20030;-79
2021/07/01 13:38:23;;;;;;;13.40;8.65;;;;;;;;;;5031973;28;20041;-79
2021/07/01 13:40:53;;;;;;;12.85;9.00;;;;;;;;;;5016374;28;20029;-79
2021/07/01 13:43:20;;;;;;;11.57;8.23;;;;;;;;;;5032818;28;20029;-78
2021/07/01 13:45:47;;;;;;;11.38;8.73;;;;;;;;;;5032382;28;20112;-79
2021/07/01 13:48:15;;;;;;;9.75;7.10;;;;;;;;;;5031860;28;20553;-79
2021/07/01 13:50:43;;;;;;;9.77;7.05;;;;;;;;;;5048550;28;20026;-79
2021/07/01 13:53:11;;;;;;;8.93;6.40;;;;;;;;;;5015743;28;20065;-79
2021/07/01 13:55:38;;;;;;;8.85;6.15;;;;;;;;;;4999513;28;20384;-79
2021/07/01 13:58:04;;;;;;;8.77;5.90;;;;;;;;;;5015532;28;20476;-79
2021/07/01 14:00:31;;;;;;;9.07;5.90;;;;;;;;;;5031562;28;20049;-79
2021/07/01 14:03:01;;;;;;;8.27;5.60;;;;;;;;;;5015631;28;20040;-79
2021/07/01 14:05:32;;;;;;;7.45;5.00;;;;;;;;;;5015574;28;20488;-79
2021/07/01 14:07:58;;;;;;;6.95;4.80;;;;;;;;;;5015720;28;20121;-79
2021/07/01 14:10:27;;;;;;;8.50;4.93;;;;;;;;;;5031992;28;20025;-79
2021/07/01 14:12:52;;;;;;;7.63;5.15;;;;;;;;;;5031981;28;20059;-79
2021/07/01 14:15:18;;;;;;;7.07;4.32;;;;;;;;;;5031562;28;20037;-79
2021/07/01 14:17:44;;;;;;;7.47;4.78;;;;;;;;;;5015762;28;20037;-79
2021/07/01 14:20:10;;;;;;;7.10;4.50;;;;;;;;;;5032160;28;20056;-79
2021/07/01 14:22:39;;;;;;;7.18;4.20;;;;;;;;;;5015160;28;20112;-79
2021/07/01 14:25:20;;;;;;;6.25;3.85;;;;;;;;;;5031964;28;20061;-79
2021/07/01 14:27:47;;;;;;;6.28;4.75;;;;;;;;;;5031821;28;20033;-79
2021/07/01 14:30:13;;;;;;;5.70;3.92;;;;;;;;;;5031132;28;20052;-79
2021/07/01 14:32:39;;;;;;;7.38;5.15;;;;;;;;;;5031485;28;20028;-79
2021/07/01 14:35:28;;;;;;;5.68;4.05;;;;;;;;;;5031636;28;20055;-79
2021/07/01 14:38:07;;;;;;;6.68;3.80;;;;;;;;;;5031451;28;20036;-79
2021/07/01 14:40:32;;;;;;;4.07;3.25;;;;;;;;;;5031364;28;20491;-79